Time;durP1;ratioP1;P1;durP2;ratioP2;P2;SDS_P1;SDS_P2;PMS_P1;PMS_P2;Temp;Humidity;BMP_temperature;BMP_pressure;BME280_temperature;BME280_humidity;BME280_pressure;Samples;Min_cycle;Max_cycle;Signal;HPM_P1;HPM_P2
2021/07/11 00:02:08;;;;;;;4.28;3.38;;;;;;;17.07;100.00;100412.44;5000082;28;20049;-68
2021/07/11 00:04:52;;;;;;;14.32;3.55;;;;;;;17.04;100.00;100417.34;4985980;28;20057;-68
2021/07/11 00:07:36;;;;;;;7.45;3.70;;;;;;;17.07;100.00;100416.97;5014343;28;20048;-68
2021/07/11 00:10:20;;;;;;;6.93;3.70;;;;;;;17.05;100.00;100403.72;4999622;28;20056;-68
2021/07/11 00:13:05;;;;;;;4.03;3.10;;;;;;;17.04;100.00;100406.59;4999547;28;20125;-68
2021/07/11 00:15:48;;;;;;;5.00;3.47;;;;;;;16.95;100.00;100416.59;4985822;28;20609;-68
2021/07/11 00:18:33;;;;;;;4.22;3.35;;;;;;;16.98;100.00;100413.53;4999191;28;20531;-68
2021/07/11 00:21:16;;;;;;;7.13;3.45;;;;;;;16.96;100.00;100404.81;4985838;28;20513;-68
2021/07/11 00:24:00;;;;;;;7.75;2.95;;;;;;;16.91;100.00;100407.19;4999378;28;20096;-68
2021/07/11 00:26:44;;;;;;;5.13;3.50;;;;;;;16.87;100.00;100411.28;4999278;28;20044;-68
2021/07/11 00:29:28;;;;;;;6.38;3.47;;;;;;;16.84;100.00;100413.47;4999221;28;20121;-68
2021/07/11 00:32:12;;;;;;;10.07;3.53;;;;;;;16.81;100.00;100408.47;4998938;28;20056;-68
2021/07/11 00:34:56;;;;;;;6.82;3.47;;;;;;;16.79;100.00;100408.63;4985582;28;20049;-68
2021/07/11 00:37:40;;;;;;;7.80;3.92;;;;;;;16.81;100.00;100413.84;4998933;28;20065;-67
2021/07/11 00:40:24;;;;;;;4.75;3.78;;;;;;;16.84;100.00;100411.66;4998743;28;20056;-68
2021/07/11 00:43:09;;;;;;;5.13;3.58;;;;;;;16.80;100.00;100407.63;4999098;28;20545;-68
2021/07/11 00:45:54;;;;;;;6.18;3.33;;;;;;;16.81;100.00;100406.63;4999295;28;20155;-68
2021/07/11 00:48:37;;;;;;;4.15;3.20;;;;;;;16.84;100.00;100416.19;4998961;28;20072;-68
2021/07/11 00:51:22;;;;;;;4.60;3.08;;;;;;;16.82;100.00;100413.69;4985270;28;20096;-68
2021/07/11 00:54:06;;;;;;;8.75;3.50;;;;;;;16.82;100.00;100405.59;4985400;28;20183;-69
2021/07/11 00:56:50;;;;;;;6.47;3.70;;;;;;;16.82;100.00;100421.75;4998697;28;20495;-68
2021/07/11 00:59:37;;;;;;;5.68;3.70;;;;;;;16.83;100.00;100428.81;4998420;28;20459;-68
2021/07/11 01:02:56;;;;;;;8.00;3.15;;;;;;;16.80;100.00;100426.47;4998580;28;20120;-68
2021/07/11 01:05:41;;;;;;;7.80;3.75;;;;;;;16.82;100.00;100439.75;4998794;28;20049;-68
2021/07/11 01:08:33;;;;;;;5.22;3.97;;;;;;;16.88;100.00;100431.78;4985016;28;20127;-68
2021/07/11 01:11:18;;;;;;;4.43;3.40;;;;;;;16.85;100.00;100434.84;5013351;28;20474;-67
2021/07/11 01:14:02;;;;;;;8.15;3.55;;;;;;;16.87;100.00;100430.13;4998522;28;20443;-68
2021/07/11 01:16:48;;;;;;;4.65;3.70;;;;;;;16.90;100.00;100429.75;4984920;28;20053;-68
2021/07/11 01:19:38;;;;;;;7.07;3.47;;;;;;;16.91;100.00;100434.13;4998806;28;20104;-68
2021/07/11 01:22:24;;;;;;;7.60;3.60;;;;;;;16.90;100.00;100432.44;4998900;28;20097;-68
2021/07/11 01:25:12;;;;;;;3.58;3.28;;;;;;;16.90;100.00;100432.44;4998343;28;20474;-68
2021/07/11 01:27:56;;;;;;;4.95;3.40;;;;;;;16.89;100.00;100433.47;4998412;28;20634;-68
2021/07/11 01:30:41;;;;;;;5.85;2.78;;;;;;;16.85;100.00;100434.84;4971293;28;20176;-68
2021/07/11 01:33:29;;;;;;;8.32;3.13;;;;;;;16.89;100.00;100435.34;4998576;28;20048;-68
2021/07/11 01:36:13;;;;;;;8.15;3.55;;;;;;;16.89;100.00;100441.53;4998519;28;20052;-68
2021/07/11 01:38:57;;;;;;;8.38;3.85;;;;;;;16.95;100.00;100439.97;4998194;28;20048;-69
2021/07/11 01:41:44;;;;;;;5.35;3.83;;;;;;;16.99;100.00;100441.31;4984465;28;20088;-68
2021/07/11 01:44:29;;;;;;;8.23;3.45;;;;;;;17.02;100.00;100443.63;4984738;28;20135;-68
2021/07/11 01:47:13;;;;;;;7.63;3.90;;;;;;;17.01;100.00;100445.47;4984881;28;20088;-67
2021/07/11 01:49:57;;;;;;;6.38;3.22;;;;;;;17.04;100.00;100441.59;4998395;28;20559;-69
2021/07/11 01:52:41;;;;;;;5.97;3.58;;;;;;;17.04;100.00;100439.75;4998450;28;20606;-68
2021/07/11 01:55:26;;;;;;;6.22;3.55;;;;;;;16.99;100.00;100444.00;4984656;28;20056;-68
2021/07/11 01:58:10;;;;;;;5.15;3.10;;;;;;;16.99;100.00;100436.75;4998043;28;20445;-68
2021/07/11 02:00:55;;;;;;;4.65;3.45;;;;;;;16.98;100.00;100424.31;4998250;28;20052;-68
2021/07/11 02:03:39;;;;;;;5.13;3.45;;;;;;;16.96;100.00;100425.50;4998257;28;20056;-68
2021/07/11 02:06:23;;;;;;;4.15;3.58;;;;;;;16.96;100.00;100429.03;4998106;28;20127;-68
2021/07/11 02:09:08;;;;;;;5.30;3.85;;;;;;;16.99;100.00;100425.97;4999145;28;20572;-68
2021/07/11 02:11:52;;;;;;;8.30;3.90;;;;;;;16.95;100.00;100434.59;5001649;28;20594;-68
2021/07/11 02:14:39;;;;;;;9.63;3.95;;;;;;;16.93;100.00;100432.09;5001766;28;20044;-68
2021/07/11 02:17:26;;;;;;;8.48;3.80;;;;;;;16.95;100.00;100429.22;4988189;28;20108;-68
2021/07/11 02:20:11;;;;;;;10.43;4.00;;;;;;;16.93;100.00;100431.25;5001669;28;20096;-68
2021/07/11 02:22:57;;;;;;;4.32;3.63;;;;;;;16.91;100.00;100436.81;5001558;28;20120;-68
2021/07/11 02:25:41;;;;;;;8.93;3.97;;;;;;;16.92;100.00;100435.81;4988138;28;20061;-68
2021/07/11 02:28:29;;;;;;;6.53;3.75;;;;;;;16.95;100.00;100438.16;4987622;28;20506;-68
2021/07/11 02:31:13;;;;;;;7.70;3.80;;;;;;;16.94;100.00;100431.09;5001152;28;20092;-68
2021/07/11 02:33:57;;;;;;;8.48;3.60;;;;;;;16.90;100.00;100421.66;5001608;28;20414;-68
2021/07/11 02:36:47;;;;;;;5.90;3.70;;;;;;;16.92;100.00;100424.19;5001325;28;20192;-68
2021/07/11 02:39:32;;;;;;;7.60;4.13;;;;;;;16.93;100.00;100425.88;5001209;28;20103;-66
2021/07/11 02:42:21;;;;;;;5.72;3.95;;;;;;;16.96;100.00;100430.88;4987330;28;20053;-68
2021/07/11 02:45:06;;;;;;;6.00;3.83;;;;;;;16.95;100.00;100435.44;5001243;28;20100;-68
2021/07/11 02:47:51;;;;;;;4.20;3.67;;;;;;;16.95;100.00;100432.75;5015770;28;20111;-68
2021/07/11 02:50:36;;;;;;;8.23;4.57;;;;;;;16.93;100.00;100437.50;5000890;28;20049;-68
2021/07/11 02:53:21;;;;;;;7.95;3.95;;;;;;;16.93;100.00;100442.88;4987529;28;20422;-68
2021/07/11 02:56:05;;;;;;;5.90;3.85;;;;;;;16.95;100.00;100443.53;5015846;28;20438;-68
2021/07/11 02:58:51;;;;;;;5.60;4.15;;;;;;;16.95;100.00;100443.53;5002096;28;20458;-68
2021/07/11 03:01:36;;;;;;;7.80;4.47;;;;;;;16.96;100.00;100442.50;4987155;28;20407;-68
2021/07/11 03:04:21;;;;;;;5.88;4.32;;;;;;;16.98;100.00;100439.66;5000969;28;20509;-68
2021/07/11 03:07:05;;;;;;;8.00;3.90;;;;;;;16.97;100.00;100448.75;5000693;28;20096;-68
2021/07/11 03:09:49;;;;;;;8.48;4.50;;;;;;;16.99;100.00;100446.69;5000454;28;20053;-66
2021/07/11 03:12:35;;;;;;;9.75;4.75;;;;;;;16.97;100.00;100441.47;5000742;28;20053;-68
2021/07/11 03:15:22;;;;;;;8.50;4.32;;;;;;;16.92;100.00;100441.22;4986993;28;20554;-68
2021/07/11 03:18:06;;;;;;;12.15;4.53;;;;;;;16.89;100.00;100452.31;5000337;28;20045;-68
2021/07/11 03:20:50;;;;;;;15.02;4.97;;;;;;;16.87;100.00;100432.81;4999874;28;20192;-68
2021/07/11 03:23:35;;;;;;;5.07;4.35;;;;;;;16.89;100.00;100446.94;5000227;28;20129;-68
2021/07/11 03:26:20;;;;;;;8.65;4.50;;;;;;;16.91;100.00;100439.50;5000421;28;20080;-69
2021/07/11 03:29:06;;;;;;;7.15;4.57;;;;;;;16.92;100.00;100443.03;5000480;28;20419;-68
2021/07/11 03:31:52;;;;;;;6.40;4.68;;;;;;;16.91;100.00;100444.88;5000656;28;20049;-68
2021/07/11 03:34:36;;;;;;;13.05;5.18;;;;;;;16.92;100.00;100446.59;4986787;28;20049;-69
2021/07/11 03:37:22;;;;;;;6.28;4.25;;;;;;;16.93;100.00;100442.03;5014920;28;20100;-68
2021/07/11 03:40:07;;;;;;;7.80;4.05;;;;;;;16.92;100.00;100449.28;5000115;28;20053;-68
2021/07/11 03:42:53;;;;;;;5.40;4.13;;;;;;;16.90;100.00;100456.69;5000144;28;20056;-68
2021/07/11 03:45:38;;;;;;;5.97;4.55;;;;;;;16.87;100.00;100459.75;4999931;28;20060;-68
2021/07/11 03:48:25;;;;;;;9.32;4.43;;;;;;;16.90;100.00;100454.00;4986277;28;20108;-67
2021/07/11 03:51:10;;;;;;;10.77;5.05;;;;;;;16.87;100.00;100465.13;5000100;28;20064;-68
2021/07/11 03:53:56;;;;;;;10.95;4.53;;;;;;;16.89;100.00;100452.31;4986112;28;20423;-69
2021/07/11 03:56:43;;;;;;;12.02;5.05;;;;;;;16.88;100.00;100464.09;4999483;28;20049;-69
2021/07/11 03:59:27;;;;;;;5.78;4.80;;;;;;;16.88;100.00;100461.41;4999753;28;20131;-69
2021/07/11 04:02:12;;;;;;;5.22;4.55;;;;;;;16.85;100.00;100467.16;4999852;28;20502;-68
2021/07/11 04:04:58;;;;;;;10.05;4.90;;;;;;;16.87;100.00;100477.78;4999815;28;20049;-68
2021/07/11 04:07:43;;;;;;;7.88;5.03;;;;;;;16.90;100.00;100475.53;4999314;28;20048;-68
2021/07/11 04:10:28;;;;;;;7.65;4.90;;;;;;;16.88;100.00;100488.34;4999615;28;20095;-68
2021/07/11 04:13:14;;;;;;;11.90;5.10;;;;;;;16.88;100.00;100493.72;4986102;28;20064;-69
2021/07/11 04:16:01;;;;;;;7.45;4.53;;;;;;;16.86;100.00;100500.31;4999881;28;20054;-68
2021/07/11 04:18:48;;;;;;;5.38;4.60;;;;;;;16.83;100.00;100498.81;4999190;28;20595;-68
2021/07/11 04:21:33;;;;;;;7.93;4.75;;;;;;;16.83;100.00;100496.13;4999500;28;20125;-68
2021/07/11 04:24:19;;;;;;;13.30;4.30;;;;;;;16.78;100.00;100498.50;4999152;28;20530;-68
2021/07/11 04:27:04;;;;;;;7.97;3.92;;;;;;;16.80;100.00;100488.38;4999442;28;20049;-68
2021/07/11 04:29:49;;;;;;;10.23;4.72;;;;;;;16.73;100.00;100495.53;4999272;28;20096;-68
2021/07/11 04:32:34;;;;;;;9.35;4.40;;;;;;;16.76;100.00;100500.53;4998338;28;20052;-68
2021/07/11 04:35:18;;;;;;;5.18;3.88;;;;;;;16.71;100.00;100496.72;5013818;28;20129;-68
2021/07/11 04:38:02;;;;;;;7.43;4.22;;;;;;;16.71;100.00;100492.19;4998961;28;20116;-68
2021/07/11 04:40:46;;;;;;;4.57;3.72;;;;;;;16.69;100.00;100491.50;4999059;28;20048;-69
2021/07/11 04:43:30;;;;;;;5.43;3.95;;;;;;;16.71;100.00;100488.63;4998885;28;20104;-68
2021/07/11 04:46:14;;;;;;;7.60;3.92;;;;;;;16.67;100.00;100490.84;4999067;28;20084;-69
2021/07/11 04:48:57;;;;;;;7.82;4.15;;;;;;;16.66;100.00;100483.78;5013784;28;20072;-67
2021/07/11 04:51:42;;;;;;;8.63;4.00;;;;;;;16.63;100.00;100481.47;4998952;28;20037;-69
2021/07/11 04:54:26;;;;;;;6.68;4.03;;;;;;;16.70;100.00;100486.97;4998725;28;20057;-68
2021/07/11 04:57:10;;;;;;;8.48;4.10;;;;;;;16.66;100.00;100493.69;4985153;28;20121;-68
2021/07/11 04:59:54;;;;;;;4.63;4.03;;;;;;;16.66;100.00;100489.16;4999044;28;20064;-68
2021/07/11 05:02:38;;;;;;;8.77;4.07;;;;;;;16.64;100.00;100496.59;5013745;28;20140;-68
2021/07/11 05:05:22;;;;;;;;;;;;;;;16.65;100.00;100495.56;4998979;28;20049;-69
2021/07/11 05:08:07;;;;;;;5.20;3.40;;;;;;;16.66;100.00;100510.69;4998580;28;20286;-68
2021/07/11 05:10:51;;;;;;;11.30;3.85;;;;;;;16.74;100.00;100507.97;4998831;28;20462;-68
2021/07/11 05:13:34;;;;;;;11.20;4.10;;;;;;;16.78;100.00;100509.28;5013606;28;20056;-68
2021/07/11 05:16:18;;;;;;;7.45;4.00;;;;;;;16.82;100.00;100518.69;5013632;28;20113;-68
2021/07/11 05:19:02;;;;;;;7.20;3.80;;;;;;;16.91;100.00;100520.28;5013148;28;20057;-68
2021/07/11 05:21:47;;;;;;;10.18;3.78;;;;;;;16.92;100.00;100513.91;4984972;28;20510;-65
2021/07/11 05:24:31;;;;;;;8.23;3.97;;;;;;;16.95;100.00;100510.00;5013248;28;20065;-68
2021/07/11 05:27:14;;;;;;;9.30;2.95;;;;;;;17.00;100.00;100511.13;4998489;28;20064;-69
2021/07/11 05:29:58;;;;;;;6.55;3.55;;;;;;;17.10;100.00;100513.63;4984733;28;20045;-69
2021/07/11 05:32:42;;;;;;;4.88;3.17;;;;;;;17.06;100.00;100513.13;4998842;28;20064;-69
2021/07/11 05:35:26;;;;;;;4.72;3.13;;;;;;;17.09;100.00;100518.16;5013682;28;20148;-68
2021/07/11 05:38:10;;;;;;;7.22;3.40;;;;;;;17.14;100.00;100517.59;5013182;28;20048;-69
2021/07/11 05:40:54;;;;;;;6.82;3.20;;;;;;;17.25;100.00;100514.50;5013038;28;20073;-68
2021/07/11 05:43:38;;;;;;;7.20;3.47;;;;;;;17.30;100.00;100504.84;4985115;28;20049;-68
2021/07/11 05:46:22;;;;;;;8.52;3.72;;;;;;;17.29;100.00;100507.75;4988247;28;20140;-66
2021/07/11 05:49:05;;;;;;;7.50;3.35;;;;;;;17.25;100.00;100518.03;5017125;28;20049;-68
2021/07/11 05:51:49;;;;;;;6.03;3.50;;;;;;;17.35;100.00;100513.28;5002247;28;20202;-68
2021/07/11 05:54:33;;;;;;;4.38;3.30;;;;;;;17.42;100.00;100516.91;5017289;28;20171;-69
2021/07/11 05:57:18;;;;;;;5.85;3.63;;;;;;;17.47;100.00;100517.19;4987991;28;20049;-68
2021/07/11 06:00:05;;;;;;;7.43;3.45;;;;;;;17.53;100.00;100521.03;4988117;28;20095;-69
2021/07/11 06:02:49;;;;;;;12.05;3.30;;;;;;;17.57;100.00;100531.25;5002059;28;20056;-69
2021/07/11 06:05:37;;;;;;;6.95;3.33;;;;;;;17.57;100.00;100523.19;4988477;28;20048;-69
2021/07/11 06:08:21;;;;;;;9.77;3.20;;;;;;;17.63;100.00;100521.59;5002362;28;20517;-69
2021/07/11 06:11:04;;;;;;;4.28;3.15;;;;;;;17.63;100.00;100527.00;5001684;28;20530;-68
2021/07/11 06:13:48;;;;;;;5.22;3.10;;;;;;;17.72;100.00;100520.50;4988094;28;20049;-69
2021/07/11 06:16:32;;;;;;;6.13;3.17;;;;;;;17.85;100.00;100516.16;5016403;28;20049;-68
2021/07/11 06:19:16;;;;;;;4.95;3.33;;;;;;;17.97;100.00;100511.13;5001690;28;20549;-68
2021/07/11 06:22:00;;;;;;;6.25;3.22;;;;;;;18.22;100.00;100516.06;4987953;28;20070;-69
2021/07/11 06:24:44;;;;;;;8.23;3.15;;;;;;;18.29;100.00;100514.31;5001342;28;20049;-67
2021/07/11 06:27:28;;;;;;;4.97;2.63;;;;;;;18.35;100.00;100518.97;4988047;28;20052;-69
2021/07/11 06:30:14;;;;;;;7.38;2.97;;;;;;;18.47;100.00;100517.47;5016384;28;20127;-68
2021/07/11 06:32:58;;;;;;;4.68;2.83;;;;;;;18.52;99.71;100515.03;5001281;28;20065;-69
2021/07/11 06:35:42;;;;;;;3.05;2.67;;;;;;;18.63;100.00;100517.25;5001381;28;20446;-69
2021/07/11 06:38:26;;;;;;;4.57;3.10;;;;;;;18.63;98.48;100519.94;5001295;28;20057;-68
2021/07/11 06:41:10;;;;;;;2.75;2.50;;;;;;;18.45;96.36;100519.53;5001015;28;20434;-69
2021/07/11 06:43:54;;;;;;;4.43;2.53;;;;;;;18.48;100.00;100519.16;4987767;28;20129;-68
2021/07/11 06:46:38;;;;;;;6.00;2.80;;;;;;;18.56;100.00;100510.94;5001530;28;20060;-69
2021/07/11 06:49:22;;;;;;;7.30;2.75;;;;;;;18.75;100.00;100515.72;5001156;28;20040;-68
2021/07/11 06:52:06;;;;;;;7.55;2.30;;;;;;;18.81;94.86;100514.97;5001115;28;20100;-69
2021/07/11 06:54:51;;;;;;;4.30;2.40;;;;;;;18.83;88.89;100516.44;5001012;28;20136;-68
2021/07/11 06:57:37;;;;;;;4.00;2.80;;;;;;;18.82;93.15;100522.03;5000185;28;20056;-69
2021/07/11 07:00:22;;;;;;;5.28;2.50;;;;;;;18.77;91.34;100519.09;5015493;28;20056;-69
2021/07/11 07:03:05;;;;;;;6.35;2.65;;;;;;;18.80;92.97;100521.41;5015511;28;20557;-69
2021/07/11 07:05:49;;;;;;;5.15;2.55;;;;;;;18.93;94.24;100525.09;5015430;28;20049;-69
2021/07/11 07:08:33;;;;;;;9.23;2.30;;;;;;;18.99;91.20;100523.47;5000603;28;20107;-69
2021/07/11 07:11:17;;;;;;;3.40;2.35;;;;;;;19.00;88.20;100520.56;4987012;28;20088;-68
2021/07/11 07:14:01;;;;;;;3.92;2.08;;;;;;;19.06;88.36;100518.97;5015275;28;20107;-69
2021/07/11 07:16:45;;;;;;;;;;;;;;;19.11;88.74;100528.19;5000811;28;20045;-69
2021/07/11 07:19:29;;;;;;;7.80;2.10;;;;;;;19.13;85.75;100527.97;5000548;28;20294;-69
2021/07/11 07:22:13;;;;;;;7.15;2.50;;;;;;;19.14;86.48;100532.34;4987108;28;20044;-69
2021/07/11 07:24:57;;;;;;;3.75;2.10;;;;;;;19.27;85.41;100532.53;5000495;28;20052;-69
2021/07/11 07:27:42;;;;;;;3.35;1.90;;;;;;;19.25;81.96;100535.44;4986575;28;20080;-69
2021/07/11 07:30:26;;;;;;;2.88;2.00;;;;;;;19.29;80.66;100552.91;5000188;28;20076;-69
2021/07/11 07:33:10;;;;;;;5.70;2.08;;;;;;;19.34;81.17;100538.81;5000153;28;20052;-69
2021/07/11 07:35:54;;;;;;;3.03;2.25;;;;;;;19.40;80.94;100540.75;5000036;28;20522;-68
2021/07/11 07:38:38;;;;;;;2.33;2.13;;;;;;;19.41;82.29;100547.84;4999981;28;20539;-69
2021/07/11 07:41:21;;;;;;;5.32;2.17;;;;;;;19.45;77.92;100546.41;4999860;28;20538;-68
2021/07/11 07:44:05;;;;;;;2.17;1.98;;;;;;;19.48;78.23;100546.88;4986373;28;20057;-70
2021/07/11 07:46:49;;;;;;;2.72;2.20;;;;;;;19.59;78.67;100548.22;4986611;28;20123;-68
2021/07/11 07:49:33;;;;;;;2.60;2.40;;;;;;;19.69;80.14;100552.25;4986332;28;20045;-68
2021/07/11 07:52:18;;;;;;;4.15;2.00;;;;;;;19.64;77.83;100540.34;4986300;28;20048;-69
2021/07/11 07:55:03;;;;;;;7.32;2.30;;;;;;;19.84;80.81;100544.88;4986191;28;20055;-69
2021/07/11 07:57:48;;;;;;;3.92;1.88;;;;;;;19.89;78.83;100544.31;4999508;28;20127;-68
2021/07/11 08:00:31;;;;;;;2.45;2.00;;;;;;;19.83;75.92;100556.75;4985751;28;20491;-69
2021/07/11 08:03:15;;;;;;;3.72;2.03;;;;;;;19.89;76.82;100555.13;5014459;28;20049;-69
2021/07/11 08:05:59;;;;;;;3.67;2.30;;;;;;;20.04;76.92;100554.03;4986078;28;20498;-69
2021/07/11 08:08:43;;;;;;;5.63;2.45;;;;;;;20.10;76.27;100549.69;4999199;28;20048;-68
2021/07/11 08:11:27;;;;;;;3.17;2.40;;;;;;;20.21;76.53;100549.94;4999635;28;20045;-68
2021/07/11 08:14:11;;;;;;;6.57;3.13;;;;;;;20.37;76.72;100543.38;4985818;28;20103;-68
2021/07/11 08:16:56;;;;;;;2.35;2.15;;;;;;;20.71;75.53;100546.03;4986100;28;20045;-69
2021/07/11 08:19:40;;;;;;;5.95;2.45;;;;;;;21.08;74.02;100542.84;4999582;28;20414;-69
2021/07/11 08:22:24;;;;;;;4.68;2.63;;;;;;;21.17;71.49;100552.47;4985467;28;20048;-69
2021/07/11 08:25:09;;;;;;;2.50;2.10;;;;;;;21.31;70.66;100544.16;4986003;28;20104;-69
2021/07/11 08:27:53;;;;;;;7.60;2.50;;;;;;;21.44;71.14;100546.88;4999278;28;20096;-69
2021/07/11 08:30:37;;;;;;;4.63;2.10;;;;;;;21.73;71.06;100541.91;4985985;28;20060;-68
2021/07/11 08:33:21;;;;;;;3.65;2.20;;;;;;;21.96;71.00;100553.16;4999244;28;20056;-68
2021/07/11 08:36:05;;;;;;;3.20;2.40;;;;;;;22.19;69.46;100550.81;4999244;28;20108;-69
2021/07/11 08:38:49;;;;;;;4.28;2.22;;;;;;;22.12;67.95;100549.19;4985476;28;20139;-68
2021/07/11 08:41:34;;;;;;;;;;;;;;;22.47;67.07;100554.13;4999573;28;20137;-68
2021/07/11 08:44:18;;;;;;;3.85;2.40;;;;;;;22.65;66.68;100554.28;4985610;28;19921;-68
2021/07/11 08:47:02;;;;;;;;;;;;;;;22.82;65.54;100552.75;4999090;28;20471;-69
2021/07/11 08:49:47;;;;;;;2.58;2.10;;;;;;;23.08;64.70;100552.63;4999083;28;19919;-68
2021/07/11 08:52:33;;;;;;;4.78;2.50;;;;;;;23.26;62.88;100558.19;4999250;28;20498;-69
2021/07/11 08:55:19;;;;;;;4.07;2.20;;;;;;;23.40;61.64;100561.63;4998904;28;20049;-67
2021/07/11 08:58:03;;;;;;;5.70;2.38;;;;;;;23.60;60.80;100556.88;4986323;28;20048;-68
2021/07/11 09:00:47;;;;;;;3.95;2.13;;;;;;;23.73;60.07;100557.63;5013619;28;20048;-68
2021/07/11 09:03:31;;;;;;;3.10;2.10;;;;;;;23.73;59.21;100565.78;4985126;28;20052;-69
2021/07/11 09:06:15;;;;;;;5.65;2.20;;;;;;;23.65;60.36;100566.06;4998651;28;20127;-69
2021/07/11 09:08:59;;;;;;;;;;;;;;;23.65;59.99;100560.59;4985365;28;20053;-68
2021/07/11 09:11:55;;;;;;;2.92;1.98;;;;;;;23.77;59.93;100564.31;4998679;28;19986;-69
2021/07/11 09:14:43;;;;;;;4.60;2.30;;;;;;;23.78;59.83;100563.25;4998616;28;20049;-69
2021/07/11 09:17:31;;;;;;;5.97;2.40;;;;;;;23.99;57.72;100554.72;4984674;28;20056;-68
2021/07/11 09:20:15;;;;;;;3.03;1.90;;;;;;;24.25;57.39;100557.16;5016140;28;20100;-69
2021/07/11 09:23:01;;;;;;;5.00;2.00;;;;;;;24.62;56.30;100559.69;5017640;28;20049;-69
2021/07/11 09:26:09;;;;;;;2.65;1.90;;;;;;;24.85;53.00;100557.13;5017468;28;20141;-68
2021/07/11 09:28:54;;;;;;;2.20;2.00;;;;;;;25.19;53.21;100550.13;4988510;28;20502;-69
2021/07/11 09:31:38;;;;;;;2.55;1.80;;;;;;;25.24;51.83;100559.31;5002704;28;20131;-69
2021/07/11 09:34:23;;;;;;;5.10;2.30;;;;;;;25.21;52.10;100553.53;4988731;28;20045;-69
2021/07/11 09:37:17;;;;;;;2.30;2.10;;;;;;;25.15;52.85;100551.69;4975065;28;20088;-69
2021/07/11 09:40:03;;;;;;;3.20;2.00;;;;;;;24.74;54.42;100551.59;4989004;28;20041;-69
2021/07/11 09:42:50;;;;;;;13.43;5.55;;;;;;;24.57;54.20;100548.66;5002386;28;20214;-69
2021/07/11 09:45:34;;;;;;;2.58;1.90;;;;;;;24.59;53.70;100552.00;5002447;28;20053;-69
2021/07/11 09:48:18;;;;;;;2.15;1.80;;;;;;;24.27;54.34;100549.59;5002092;28;20513;-69
2021/07/11 09:51:17;;;;;;;3.00;2.20;;;;;;;24.83;54.66;100550.22;5002054;28;20048;-69
2021/07/11 09:54:12;;;;;;;5.07;1.95;;;;;;;25.18;50.34;100538.41;5001981;28;20041;-69
2021/07/11 09:56:56;;;;;;;3.40;2.00;;;;;;;25.02;49.95;100543.69;4988245;28;20073;-69
2021/07/11 09:59:40;;;;;;;2.15;1.98;;;;;;;25.27;51.81;100547.97;5002066;28;20104;-68
2021/07/11 10:02:24;;;;;;;;;;;;;;;25.77;49.84;100537.50;5017372;28;20073;-68
2021/07/11 10:05:10;;;;;;;3.05;2.17;;;;;;;25.93;47.79;100545.03;4988567;28;19920;-69
2021/07/11 10:07:55;;;;;;;2.00;1.88;;;;;;;25.73;47.45;100552.72;5016874;28;20056;-69
2021/07/11 10:10:40;;;;;;;2.25;2.00;;;;;;;25.80;47.64;100545.22;5001653;28;20188;-69
2021/07/11 10:13:25;;;;;;;3.97;2.30;;;;;;;25.85;49.63;100546.16;5001974;28;20129;-69
2021/07/11 10:16:10;;;;;;;2.63;2.03;;;;;;;25.94;49.77;100546.72;5001695;28;20141;-68
2021/07/11 10:18:55;;;;;;;2.50;2.10;;;;;;;25.99;49.74;100544.06;4987958;28;20057;-69
2021/07/11 10:21:44;;;;;;;3.88;2.03;;;;;;;26.12;50.76;100552.06;5001378;28;20578;-68
2021/07/11 10:24:41;;;;;;;2.40;2.20;;;;;;;26.15;48.64;100549.66;5002215;28;20213;-69
2021/07/11 10:27:27;;;;;;;4.40;1.80;;;;;;;26.21;47.77;100550.59;5001549;28;20044;-69
2021/07/11 10:30:11;;;;;;;3.05;1.90;;;;;;;26.21;47.70;100546.00;4987976;28;20107;-68
2021/07/11 10:33:16;;;;;;;2.80;2.20;;;;;;;25.97;47.89;100548.97;5001395;28;20053;-69
2021/07/11 10:36:02;;;;;;;3.05;1.95;;;;;;;25.83;47.88;100542.03;5001461;28;20087;-69
2021/07/11 10:38:54;;;;;;;2.28;1.80;;;;;;;25.47;48.76;100543.03;4987354;28;20052;-69
2021/07/11 10:41:52;;;;;;;2.22;1.70;;;;;;;25.12;49.15;100538.50;5001249;28;20514;-70
2021/07/11 10:44:36;;;;;;;2.13;1.92;;;;;;;25.05;49.89;100541.34;5001256;28;20053;-69
2021/07/11 10:47:21;;;;;;;1.90;1.77;;;;;;;25.07;52.16;100546.53;5001122;28;20084;-68
2021/07/11 10:50:21;;;;;;;2.28;2.08;;;;;;;24.85;50.94;100542.66;5001711;28;20092;-69
2021/07/11 10:53:17;;;;;;;2.28;1.83;;;;;;;24.79;51.46;100543.59;5001246;28;20549;-68
2021/07/11 10:56:06;;;;;;;4.55;2.03;;;;;;;24.80;50.68;100540.59;5001156;28;20510;-69
2021/07/11 10:58:49;;;;;;;2.40;1.80;;;;;;;24.67;51.41;100539.94;5000591;28;20057;-69
2021/07/11 11:01:35;;;;;;;;;;;;;;;24.01;53.50;100543.56;5001358;28;20057;-69
2021/07/11 11:04:20;;;;;;;3.45;2.08;;;;;;;23.75;55.54;100533.72;4987356;28;20446;-69
2021/07/11 11:07:22;;;;;;;2.50;2.20;;;;;;;23.87;56.44;100532.00;5000952;28;20458;-70
2021/07/11 11:10:30;;;;;;;2.63;2.03;;;;;;;23.72;59.36;100545.06;4986804;28;20045;-69
2021/07/11 11:13:19;;;;;;;5.05;2.50;;;;;;;23.37;60.98;100546.59;4987166;28;20041;-68
2021/07/11 11:16:17;;;;;;;2.40;2.20;;;;;;;23.10;61.22;100539.63;5000957;28;20060;-69
2021/07/11 11:19:01;;;;;;;3.80;2.42;;;;;;;22.80;61.21;100543.16;5000408;28;20045;-68
2021/07/11 11:21:51;;;;;;;;;;;;;;;22.53;61.90;100547.00;5001035;28;20089;-68
2021/07/11 11:24:40;;;;;;;4.93;2.10;;;;;;;22.64;61.97;100541.75;5015256;28;19959;-68
2021/07/11 11:27:42;;;;;;;3.40;2.15;;;;;;;22.54;61.26;100538.66;5000469;28;20119;-68
2021/07/11 11:30:26;;;;;;;3.50;1.90;;;;;;;22.62;61.90;100535.69;5000618;28;20084;-68
2021/07/11 11:33:10;;;;;;;6.10;2.03;;;;;;;22.66;60.92;100542.38;5000140;28;20052;-69
2021/07/11 11:35:54;;;;;;;2.15;1.95;;;;;;;22.84;62.32;100539.75;5000115;28;20494;-69
2021/07/11 11:38:42;;;;;;;3.17;1.90;;;;;;;23.17;60.44;100537.75;5000277;28;20056;-69
2021/07/11 11:41:26;;;;;;;2.40;1.98;;;;;;;24.02;58.28;100537.91;4985862;28;20049;-69
2021/07/11 11:44:18;;;;;;;2.33;2.05;;;;;;;25.98;53.11;100536.94;5000281;28;20052;-68
2021/07/11 11:47:02;;;;;;;3.72;2.00;;;;;;;26.05;51.40;100538.50;5014796;28;20465;-69
2021/07/11 11:49:46;;;;;;;2.63;1.85;;;;;;;25.90;52.18;100540.88;4986200;28;20096;-69
2021/07/11 11:52:30;;;;;;;;;;;;;;;24.83;56.79;100540.13;5000437;28;20057;-69
2021/07/11 11:55:15;;;;;;;3.35;1.88;;;;;;;23.88;60.46;100539.09;5014561;28;19967;-68
2021/07/11 11:58:07;;;;;;;2.17;1.98;;;;;;;23.84;61.47;100537.03;4985896;28;20057;-68
2021/07/11 12:01:09;;;;;;;2.60;1.85;;;;;;;22.87;63.75;100539.34;4986155;28;20053;-69
2021/07/11 12:03:53;;;;;;;3.22;2.35;;;;;;;22.90;65.14;100543.53;4986024;28;20072;-69
2021/07/11 12:06:37;;;;;;;2.78;2.05;;;;;;;22.71;65.90;100544.44;5014682;28;20124;-69
2021/07/11 12:09:26;;;;;;;5.63;2.30;;;;;;;22.52;68.37;100535.28;4999687;28;20096;-69
2021/07/11 12:12:11;;;;;;;2.35;2.15;;;;;;;22.63;66.32;100537.34;4999795;28;20129;-69
2021/07/11 12:14:56;;;;;;;3.15;2.25;;;;;;;22.82;66.25;100541.88;4999311;28;20137;-69
2021/07/11 12:17:40;;;;;;;2.92;2.13;;;;;;;22.74;65.96;100533.97;4999367;28;20065;-69
2021/07/11 12:20:24;;;;;;;3.65;2.40;;;;;;;22.70;67.51;100538.16;4985517;28;20049;-69
2021/07/11 12:23:10;;;;;;;2.70;2.28;;;;;;;22.91;64.95;100534.31;5014126;28;20052;-69
2021/07/11 12:26:03;;;;;;;5.88;2.15;;;;;;;23.06;64.40;100530.25;4999667;28;20514;-68
2021/07/11 12:28:52;;;;;;;2.13;1.98;;;;;;;23.36;64.04;100527.78;4999426;28;20061;-69
2021/07/11 12:31:37;;;;;;;4.55;1.85;;;;;;;23.43;63.00;100534.81;4999209;28;20522;-69
2021/07/11 12:34:21;;;;;;;2.17;1.88;;;;;;;23.49;61.84;100536.69;4985582;28;20049;-69
2021/07/11 12:37:07;;;;;;;2.03;1.88;;;;;;;23.65;62.19;100530.66;4999147;28;20482;-69
2021/07/11 12:39:51;;;;;;;3.92;1.80;;;;;;;23.48;61.50;100532.28;4998969;28;20182;-69
2021/07/11 12:42:35;;;;;;;4.45;2.00;;;;;;;23.39;61.30;100536.34;5014298;28;20557;-69
2021/07/11 12:45:19;;;;;;;;;;;;;;;23.67;60.61;100528.59;4999442;28;20506;-69
2021/07/11 12:48:04;;;;;;;2.23;1.90;;;;;;;24.08;61.57;100528.00;4998733;28;20382;-69